createdAt,value
2023-03-26T14:50:03.852Z,97333.00
2023-03-26T14:53:25.006Z,97328.97
2023-03-26T14:57:25.558Z,97326.25
2023-03-26T15:01:21.515Z,97315.28
2023-03-26T15:05:11.602Z,97306.53
2023-03-26T15:08:58.878Z,97305.84
2023-03-26T15:12:15.052Z,97308.84
2023-03-26T15:15:45.658Z,97302.22
2023-03-26T15:19:36.702Z,97305.44
2023-03-26T15:23:18.532Z,97300.88
2023-03-26T15:26:57.015Z,97305.38
2023-03-26T15:30:33.101Z,97291.31
2023-03-26T15:34:13.581Z,97300.78
2023-03-26T15:37:59.173Z,97295.41
2023-03-26T15:41:31.044Z,97298.97
2023-03-26T15:44:58.623Z,97293.81
2023-03-26T15:48:34.490Z,97293.31
2023-03-26T15:51:56.629Z,97291.22
2023-03-26T15:55:21.581Z,97288.66
2023-03-26T15:58:37.011Z,97284.25
2023-03-26T16:02:03.092Z,97288.16
2023-03-26T16:05:37.450Z,97282.34
2023-03-26T16:08:53.424Z,97286.03
2023-03-26T16:12:00.770Z,97288.44
2023-03-26T16:15:32.377Z,97284.25
2023-03-26T16:18:38.380Z,97280.47
2023-03-26T16:22:00.464Z,97266.03
2023-03-26T16:25:29.142Z,97273.03
2023-03-26T16:28:37.092Z,97265.78
2023-03-26T16:32:11.178Z,97268.00
2023-03-26T16:35:46.745Z,97258.25
2023-03-26T16:39:13.012Z,97255.56
2023-03-26T16:42:40.610Z,97264.00
2023-03-26T16:45:56.605Z,97266.63
2023-03-26T16:49:18.075Z,97264.25
2023-03-26T16:52:44.285Z,97255.72
2023-03-26T16:56:02.617Z,97263.88
2023-03-26T16:59:44.909Z,97261.34
2023-03-26T17:03:03.815Z,97254.53
2023-03-26T17:06:29.185Z,97260.59
2023-03-26T17:09:54.838Z,97252.09
2023-03-26T17:13:12.395Z,97259.75
2023-03-26T17:16:27.587Z,97255.91
2023-03-26T17:19:46.643Z,97264.38
2023-03-26T17:23:02.224Z,97268.97
2023-03-26T17:26:22.921Z,97265.28
2023-03-26T17:30:08.627Z,97265.91
2023-03-26T17:33:24.790Z,97260.88
2023-03-26T17:36:43.330Z,97265.09
2023-03-26T17:40:55.899Z,97260.00
2023-03-26T17:44:01.346Z,97270.59
2023-03-26T17:47:16.332Z,97260.66
2023-03-26T17:50:25.757Z,97260.41
2023-03-26T17:53:35.669Z,97259.13
2023-03-26T17:56:42.952Z,97268.19
2023-03-26T17:59:52.667Z,97278.88
2023-03-26T18:03:02.239Z,97276.88
2023-03-26T18:06:12.288Z,97266.56
2023-03-26T18:09:34.240Z,97272.22
2023-03-26T18:13:15.524Z,97266.75
2023-03-26T18:16:26.646Z,97265.25
2023-03-26T18:19:48.417Z,97264.59
2023-03-26T18:22:54.724Z,97257.16
2023-03-26T18:26:15.935Z,97252.66
2023-03-26T18:29:25.794Z,97249.63
2023-03-26T18:32:33.488Z,97253.09
2023-03-26T18:35:44.470Z,97248.63
2023-03-26T18:38:49.091Z,97249.44
2023-03-26T18:41:53.750Z,97249.31
2023-03-26T18:45:00.538Z,97257.66
2023-03-26T18:48:12.714Z,97254.72
2023-03-26T18:51:23.389Z,97252.53
2023-03-26T18:54:36.598Z,97248.72
2023-03-26T18:57:41.488Z,97248.22
2023-03-26T19:00:46.356Z,97247.38
2023-03-26T19:03:50.952Z,97251.53
2023-03-26T19:06:58.209Z,97249.03
2023-03-26T19:10:03.042Z,97243.06
2023-03-26T19:13:14.234Z,97244.72
2023-03-26T19:16:24.189Z,97240.22
2023-03-26T19:19:34.312Z,97240.69
2023-03-26T19:22:42.480Z,97237.03
2023-03-26T19:25:49.662Z,97224.38
2023-03-26T19:28:57.834Z,97225.03
2023-03-26T19:32:07.013Z,97216.72
2023-03-26T19:35:22.077Z,97212.06
2023-03-26T19:38:59.801Z,97214.56
2023-03-26T19:42:16.187Z,97215.72
2023-03-26T19:45:23.824Z,97219.06
2023-03-26T19:48:46.069Z,97217.72
